Time;durP1;ratioP1;P1;durP2;ratioP2;P2;SDS_P1;SDS_P2;PMS_P1;PMS_P2;Temp;Humidity;BMP_temperature;BMP_pressure;BME280_temperature;BME280_humidity;BME280_pressure;Samples;Min_cycle;Max_cycle;Signal;HPM_P1;HPM_P2
2022/09/08 00:00:26;;;;;;;3.88;2.40;;;;;;;;;;5030335;28;20060;-62
2022/09/08 00:02:52;;;;;;;5.28;2.30;;;;;;;;;;5029658;28;20026;-62
2022/09/08 00:05:22;;;;;;;6.55;2.40;;;;;;;;;;5030397;28;20026;-63
2022/09/08 00:07:48;;;;;;;9.87;2.37;;;;;;;;;;5029986;28;20121;-62
2022/09/08 00:10:14;;;;;;;5.57;2.33;;;;;;;;;;5031067;28;20446;-63
2022/09/08 00:12:41;;;;;;;6.43;2.60;;;;;;;;;;5030340;28;20060;-63
2022/09/08 00:15:11;;;;;;;7.95;2.75;;;;;;;;;;5030307;28;20120;-62
2022/09/08 00:17:37;;;;;;;3.88;2.13;;;;;;;;;;5029731;28;20037;-65
2022/09/08 00:20:04;;;;;;;7.70;2.72;;;;;;;;;;5029582;28;20088;-66
2022/09/08 00:22:29;;;;;;;4.88;2.05;;;;;;;;;;5029523;28;20029;-62
2022/09/08 00:24:55;;;;;;;4.70;2.20;;;;;;;;;;5029930;28;20037;-62
2022/09/08 00:27:20;;;;;;;5.38;2.38;;;;;;;;;;5028549;28;20080;-62
2022/09/08 00:29:46;;;;;;;4.75;2.03;;;;;;;;;;5029080;28;20029;-62
2022/09/08 00:32:11;;;;;;;6.32;2.55;;;;;;;;;;5029901;28;20026;-62
2022/09/08 00:34:37;;;;;;;4.10;1.90;;;;;;;;;;5029206;28;20051;-62
2022/09/08 00:37:02;;;;;;;4.15;2.30;;;;;;;;;;5029007;28;20382;-62
2022/09/08 00:39:28;;;;;;;6.43;2.25;;;;;;;;;;5030364;28;20025;-62
2022/09/08 00:41:55;;;;;;;5.82;2.40;;;;;;;;;;5029583;28;20034;-63
2022/09/08 00:44:49;;;;;;;5.05;2.05;;;;;;;;;;5028874;28;20387;-63
2022/09/08 00:47:23;;;;;;;6.80;2.60;;;;;;;;;;5029429;28;20112;-63
2022/09/08 00:50:06;;;;;;;3.70;2.30;;;;;;;;;;5028959;28;20025;-62
2022/09/08 00:53:00;;;;;;;3.08;2.00;;;;;;;;;;5030325;28;20033;-63
2022/09/08 00:55:30;;;;;;;5.78;2.10;;;;;;;;;;5030041;28;20033;-63
2022/09/08 00:57:56;;;;;;;3.65;1.92;;;;;;;;;;5028941;28;20037;-68
2022/09/08 01:00:22;;;;;;;5.18;2.40;;;;;;;;;;5028629;28;20033;-65
2022/09/08 01:02:47;;;;;;;6.35;2.45;;;;;;;;;;5029437;28;20029;-65
2022/09/08 01:05:17;;;;;;;4.80;2.40;;;;;;;;;;5028141;28;20086;-65
2022/09/08 01:13:58;;;;;;;;;;;;;;;;;;5029943;28;20130;-65
2022/09/08 01:16:24;;;;;;;5.47;2.65;;;;;;;;;;5029903;28;19913;-66
2022/09/08 01:18:50;;;;;;;4.80;2.38;;;;;;;;;;5028398;28;20029;-62
2022/09/08 01:21:46;;;;;;;8.07;2.85;;;;;;;;;;5029520;28;20071;-62
2022/09/08 01:24:46;;;;;;;4.93;2.30;;;;;;;;;;5029077;28;20140;-64
2022/09/08 01:27:14;;;;;;;6.45;3.08;;;;;;;;;;5028083;28;20057;-62
2022/09/08 01:29:43;;;;;;;4.80;2.80;;;;;;;;;;5028061;28;20482;-62
2022/09/08 01:32:09;;;;;;;4.82;2.28;;;;;;;;;;5028236;28;20072;-62
2022/09/08 01:34:40;;;;;;;7.00;2.80;;;;;;;;;;5029295;28;20429;-63
2022/09/08 01:37:05;;;;;;;4.72;2.50;;;;;;;;;;5028218;28;20018;-62
2022/09/08 01:39:31;;;;;;;5.38;2.90;;;;;;;;;;5027785;28;20060;-62
2022/09/08 01:41:57;;;;;;;6.53;2.40;;;;;;;;;;5028484;28;20116;-62
2022/09/08 01:44:22;;;;;;;8.80;2.60;;;;;;;;;;5029609;28;20371;-63
2022/09/08 01:46:48;;;;;;;4.68;2.63;;;;;;;;;;5028879;28;20037;-62
2022/09/08 01:49:14;;;;;;;5.40;2.50;;;;;;;;;;5029518;28;20105;-63
2022/09/08 01:51:39;;;;;;;6.80;2.67;;;;;;;;;;5028129;28;20398;-62
2022/09/08 01:54:05;;;;;;;5.32;2.30;;;;;;;;;;5027921;28;20032;-62
2022/09/08 01:56:32;;;;;;;6.00;2.63;;;;;;;;;;5029574;28;20041;-62
2022/09/08 01:58:57;;;;;;;5.05;2.55;;;;;;;;;;5027968;28;20563;-62
2022/09/08 02:01:22;;;;;;;4.22;2.40;;;;;;;;;;5028669;28;20140;-62
2022/09/08 02:03:48;;;;;;;9.88;3.00;;;;;;;;;;5028967;28;20034;-63
2022/09/08 02:06:13;;;;;;;7.07;3.03;;;;;;;;;;5028727;28;20105;-62
2022/09/08 02:08:39;;;;;;;4.35;2.38;;;;;;;;;;5028269;28;20467;-62
2022/09/08 02:11:05;;;;;;;6.63;2.80;;;;;;;;;;5027987;28;20029;-62
2022/09/08 02:13:31;;;;;;;5.13;2.50;;;;;;;;;;5028378;28;20030;-64
2022/09/08 02:16:06;;;;;;;10.13;2.83;;;;;;;;;;5028751;28;20033;-66
2022/09/08 02:18:33;;;;;;;3.92;2.60;;;;;;;;;;5032956;28;20407;-62
2022/09/08 02:21:11;;;;;;;7.50;2.92;;;;;;;;;;5032121;28;20017;-63
2022/09/08 02:23:40;;;;;;;6.32;2.50;;;;;;;;;;5031496;28;20041;-66
2022/09/08 02:26:07;;;;;;;5.13;2.53;;;;;;;;;;5031464;28;20067;-62
2022/09/08 02:28:33;;;;;;;6.28;2.70;;;;;;;;;;5031929;28;20509;-62
2022/09/08 02:31:01;;;;;;;5.72;2.70;;;;;;;;;;5031368;28;20025;-62
2022/09/08 02:33:27;;;;;;;5.20;2.47;;;;;;;;;;5032656;28;20032;-63
2022/09/08 02:35:53;;;;;;;5.75;2.78;;;;;;;;;;5031302;28;20072;-62
2022/09/08 02:38:18;;;;;;;5.32;2.40;;;;;;;;;;5031455;28;20033;-62
2022/09/08 02:40:44;;;;;;;4.95;2.40;;;;;;;;;;5031321;28;20490;-62
2022/09/08 02:43:09;;;;;;;4.53;2.50;;;;;;;;;;5032143;28;20360;-64
2022/09/08 02:45:39;;;;;;;4.38;2.65;;;;;;;;;;5032100;28;20091;-65
2022/09/08 02:48:05;;;;;;;6.97;2.30;;;;;;;;;;5031260;28;20426;-64
2022/09/08 02:50:30;;;;;;;5.57;2.45;;;;;;;;;;5031792;28;20029;-65
2022/09/08 02:52:56;;;;;;;9.85;2.78;;;;;;;;;;5030813;28;20036;-64
2022/09/08 02:55:23;;;;;;;5.95;2.40;;;;;;;;;;5031761;28;20025;-64
2022/09/08 02:57:50;;;;;;;5.20;2.40;;;;;;;;;;5031099;28;20022;-64
2022/09/08 03:00:16;;;;;;;7.50;2.13;;;;;;;;;;5032223;28;20022;-64
2022/09/08 03:02:41;;;;;;;14.90;6.18;;;;;;;;;;5031827;28;20029;-65
2022/09/08 03:05:07;;;;;;;3.60;2.40;;;;;;;;;;5031322;28;20332;-62
2022/09/08 03:07:32;;;;;;;3.97;2.60;;;;;;;;;;5031513;28;20025;-64
2022/09/08 03:09:58;;;;;;;5.07;2.47;;;;;;;;;;5030948;28;20028;-67
2022/09/08 03:12:26;;;;;;;5.47;1.92;;;;;;;;;;5031372;28;22004;-64
2022/09/08 03:14:53;;;;;;;6.75;2.58;;;;;;;;;;5031774;28;20048;-66
2022/09/08 03:17:20;;;;;;;6.22;2.30;;;;;;;;;;5031382;28;20029;-64
2022/09/08 03:19:46;;;;;;;6.95;2.40;;;;;;;;;;5031233;28;20525;-62
2022/09/08 03:22:12;;;;;;;7.10;2.55;;;;;;;;;;5030776;28;20025;-63
2022/09/08 03:24:38;;;;;;;4.95;2.58;;;;;;;;;;5029803;28;20037;-64
2022/09/08 03:27:04;;;;;;;5.55;2.70;;;;;;;;;;5029174;28;20046;-62
2022/09/08 03:29:31;;;;;;;4.90;2.28;;;;;;;;;;5028741;28;20022;-62
2022/09/08 03:31:57;;;;;;;6.38;2.30;;;;;;;;;;5031132;28;20033;-65
2022/09/08 03:34:23;;;;;;;7.40;2.20;;;;;;;;;;5030644;28;20025;-64
2022/09/08 03:36:48;;;;;;;5.03;2.67;;;;;;;;;;5029598;28;20052;-65
2022/09/08 03:39:13;;;;;;;8.73;2.47;;;;;;;;;;5030759;28;20132;-64
2022/09/08 03:41:39;;;;;;;7.22;2.47;;;;;;;;;;5030720;28;20482;-65
2022/09/08 03:44:04;;;;;;;4.82;2.10;;;;;;;;;;5029762;28;20021;-67
2022/09/08 03:46:30;;;;;;;5.10;2.40;;;;;;;;;;5031410;28;20036;-65
2022/09/08 03:48:55;;;;;;;7.68;2.63;;;;;;;;;;5029606;28;20033;-65
2022/09/08 03:51:25;;;;;;;6.15;2.60;;;;;;;;;;5029902;28;20391;-64
2022/09/08 03:53:53;;;;;;;12.63;3.50;;;;;;;;;;5030017;28;20413;-64
2022/09/08 03:56:18;;;;;;;7.32;2.40;;;;;;;;;;5031054;28;20354;-65
2022/09/08 03:58:44;;;;;;;6.90;2.97;;;;;;;;;;5030439;28;20097;-62
2022/09/08 04:01:15;;;;;;;5.70;2.75;;;;;;;;;;5029816;28;20043;-63
2022/09/08 04:03:41;;;;;;;9.00;2.83;;;;;;;;;;5029332;28;20041;-63
2022/09/08 04:06:07;;;;;;;6.75;2.60;;;;;;;;;;5029748;28;20095;-65
2022/09/08 04:08:33;;;;;;;5.55;2.78;;;;;;;;;;5029943;28;20022;-64
2022/09/08 04:10:59;;;;;;;5.35;2.88;;;;;;;;;;5029332;28;20448;-64
2022/09/08 04:13:26;;;;;;;4.28;3.00;;;;;;;;;;5029474;28;20037;-64
2022/09/08 04:15:52;;;;;;;7.53;2.72;;;;;;;;;;5029597;28;20037;-64
2022/09/08 04:18:17;;;;;;;7.97;2.80;;;;;;;;;;5029689;28;20033;-64
2022/09/08 04:20:43;;;;;;;5.80;2.90;;;;;;;;;;5029786;28;20108;-64
2022/09/08 04:23:09;;;;;;;6.38;2.80;;;;;;;;;;5029188;28;20032;-64
2022/09/08 04:25:35;;;;;;;6.05;2.53;;;;;;;;;;5029868;28;20167;-64
2022/09/08 04:28:00;;;;;;;6.75;2.50;;;;;;;;;;5029412;28;20482;-64
2022/09/08 04:30:26;;;;;;;9.60;2.95;;;;;;;;;;5029995;28;20033;-66
2022/09/08 04:32:52;;;;;;;10.18;3.20;;;;;;;;;;5029007;28;20025;-64
2022/09/08 04:35:17;;;;;;;8.32;2.90;;;;;;;;;;5029983;28;20024;-64
2022/09/08 04:37:43;;;;;;;7.82;3.15;;;;;;;;;;5028926;28;20045;-64
2022/09/08 04:40:09;;;;;;;6.07;2.97;;;;;;;;;;5028969;28;20034;-67
2022/09/08 04:42:35;;;;;;;9.35;2.70;;;;;;;;;;5030165;28;20439;-65
2022/09/08 04:45:01;;;;;;;4.75;2.63;;;;;;;;;;5029507;28;20032;-67
2022/09/08 04:47:27;;;;;;;7.40;3.28;;;;;;;;;;5029383;28;20111;-64
2022/09/08 04:49:53;;;;;;;7.47;3.10;;;;;;;;;;5029618;28;20057;-64
2022/09/08 04:52:20;;;;;;;6.07;3.05;;;;;;;;;;5030251;28;20096;-64
2022/09/08 04:54:46;;;;;;;6.03;2.90;;;;;;;;;;5029632;28;20026;-64
2022/09/08 04:57:13;;;;;;;6.32;3.25;;;;;;;;;;5028818;28;20043;-64
2022/09/08 04:59:39;;;;;;;9.77;3.10;;;;;;;;;;5028928;28;20033;-64
2022/09/08 05:02:05;;;;;;;6.80;3.28;;;;;;;;;;5029079;28;20482;-64
2022/09/08 05:04:30;;;;;;;7.63;2.75;;;;;;;;;;5030034;28;20026;-68
2022/09/08 05:06:56;;;;;;;7.80;2.75;;;;;;;;;;5027660;28;20135;-64
2022/09/08 05:09:21;;;;;;;6.00;2.85;;;;;;;;;;5028913;28;20028;-64
2022/09/08 05:11:47;;;;;;;6.30;3.05;;;;;;;;;;5028818;28;20171;-64
2022/09/08 05:14:12;;;;;;;6.18;2.95;;;;;;;;;;5029162;28;20101;-65
2022/09/08 05:16:38;;;;;;;7.55;3.17;;;;;;;;;;5028220;28;20026;-64
2022/09/08 05:19:06;;;;;;;8.25;2.80;;;;;;;;;;5028547;28;20030;-64
2022/09/08 05:21:33;;;;;;;5.93;3.30;;;;;;;;;;5029127;28;20446;-66
2022/09/08 05:24:00;;;;;;;7.55;3.10;;;;;;;;;;5029122;28;20112;-65
2022/09/08 05:26:27;;;;;;;7.90;2.88;;;;;;;;;;5027337;28;20422;-64
2022/09/08 05:28:53;;;;;;;6.47;3.03;;;;;;;;;;5028233;28;20034;-66
2022/09/08 05:31:22;;;;;;;6.60;3.10;;;;;;;;;;5029238;28;20040;-65
2022/09/08 05:33:47;;;;;;;5.90;3.25;;;;;;;;;;5028041;28;20059;-64
2022/09/08 05:36:17;;;;;;;7.03;3.03;;;;;;;;;;5029047;28;20040;-64
2022/09/08 05:38:44;;;;;;;4.72;2.67;;;;;;;;;;5029131;28;20025;-64
2022/09/08 05:41:10;;;;;;;5.43;2.90;;;;;;;;;;5028647;28;20478;-64
2022/09/08 05:43:36;;;;;;;5.90;2.97;;;;;;;;;;5028794;28;20390;-64
2022/09/08 05:46:02;;;;;;;6.63;2.97;;;;;;;;;;5028234;28;20025;-65
2022/09/08 05:48:28;;;;;;;7.60;3.72;;;;;;;;;;5028925;28;20034;-66
2022/09/08 05:50:54;;;;;;;5.03;3.08;;;;;;;;;;5030136;28;20143;-69
2022/09/08 05:53:19;;;;;;;7.30;2.90;;;;;;;;;;5032121;28;20544;-64
2022/09/08 05:56:04;;;;;;;6.60;3.25;;;;;;;;;;5032452;28;20069;-64
2022/09/08 05:58:30;;;;;;;8.95;3.90;;;;;;;;;;5033390;28;20021;-65
2022/09/08 06:00:57;;;;;;;5.45;2.97;;;;;;;;;;5032109;28;20613;-66
2022/09/08 06:03:24;;;;;;;8.75;3.08;;;;;;;;;;5032775;28;20022;-65
2022/09/08 06:05:50;;;;;;;7.25;3.30;;;;;;;;;;5031977;28;20041;-67
2022/09/08 06:08:15;;;;;;;8.77;3.78;;;;;;;;;;5032942;28;20021;-64
2022/09/08 06:10:41;;;;;;;7.65;3.00;;;;;;;;;;5031525;28;20060;-68
2022/09/08 06:13:06;;;;;;;6.75;3.53;;;;;;;;;;5032283;28;20148;-68
2022/09/08 06:15:32;;;;;;;9.05;3.40;;;;;;;;;;5031556;28;20506;-65
2022/09/08 06:18:01;;;;;;;6.68;3.30;;;;;;;;;;5031905;28;20130;-66
2022/09/08 06:20:26;;;;;;;7.78;3.22;;;;;;;;;;5031670;28;20026;-65
2022/09/08 06:22:52;;;;;;;10.18;3.10;;;;;;;;;;5031000;28;20029;-65
2022/09/08 06:25:17;;;;;;;8.68;3.15;;;;;;;;;;5031387;28;20387;-64
2022/09/08 06:28:22;;;;;;;7.25;3.08;;;;;;;;;;5031550;28;20033;-65
2022/09/08 06:30:54;;;;;;;10.23;3.60;;;;;;;;;;5031301;28;20032;-64
2022/09/08 06:33:29;;;;;;;5.28;3.00;;;;;;;;;;5032075;28;20033;-66
2022/09/08 06:36:02;;;;;;;7.72;3.42;;;;;;;;;;5031629;28;20239;-65
2022/09/08 06:38:34;;;;;;;5.72;3.63;;;;;;;;;;5031290;28;20040;-65
2022/09/08 06:41:14;;;;;;;9.73;3.78;;;;;;;;;;5031962;28;20491;-65
2022/09/08 06:43:44;;;;;;;6.45;3.80;;;;;;;;;;5031384;28;20036;-64
2022/09/08 06:46:34;;;;;;;10.43;3.75;;;;;;;;;;5030368;28;20509;-64
2022/09/08 06:48:59;;;;;;;10.83;4.23;;;;;;;;;;5028070;28;20124;-65
2022/09/08 06:51:34;;;;;;;11.80;4.60;;;;;;;;;;5030572;28;20104;-66
2022/09/08 06:54:20;;;;;;;18.27;7.22;;;;;;;;;;5031753;28;20030;-69
2022/09/08 06:57:26;;;;;;;12.55;6.00;;;;;;;;;;5031852;28;20057;-68
2022/09/08 07:00:13;;;;;;;9.27;4.50;;;;;;;;;;5031720;28;20033;-65
2022/09/08 07:02:56;;;;;;;7.22;3.95;;;;;;;;;;5030904;28;20104;-65
2022/09/08 07:05:48;;;;;;;12.07;3.70;;;;;;;;;;5030762;28;20336;-65
2022/09/08 07:08:38;;;;;;;7.03;3.35;;;;;;;;;;5031055;28;20026;-64
2022/09/08 07:11:33;;;;;;;6.88;3.70;;;;;;;;;;5030915;28;20052;-65
2022/09/08 07:14:30;;;;;;;10.23;3.63;;;;;;;;;;5031151;28;20030;-67
2022/09/08 07:17:04;;;;;;;11.18;3.70;;;;;;;;;;5007041;28;20217;-65
2022/09/08 07:19:54;;;;;;;12.40;4.20;;;;;;;;;;5008134;28;20038;-65
2022/09/08 07:22:23;;;;;;;10.45;4.07;;;;;;;;;;5007726;28;20147;-65
2022/09/08 07:24:50;;;;;;;9.05;3.92;;;;;;;;;;5008095;28;20034;-64
2022/09/08 07:27:17;;;;;;;10.18;4.07;;;;;;;;;;5007770;28;20054;-64
2022/09/08 07:29:46;;;;;;;7.80;3.72;;;;;;;;;;5007774;28;20510;-64
2022/09/08 07:32:19;;;;;;;8.35;4.07;;;;;;;;;;5008373;28;20568;-65
2022/09/08 07:34:55;;;;;;;7.57;3.67;;;;;;;;;;5008945;28;20112;-65
2022/09/08 07:37:45;;;;;;;9.63;4.40;;;;;;;;;;5009445;28;20121;-67
2022/09/08 07:40:32;;;;;;;8.32;4.15;;;;;;;;;;5007050;28;20034;-65
2022/09/08 07:42:58;;;;;;;7.00;4.05;;;;;;;;;;5007667;28;20046;-64
2022/09/08 07:45:39;;;;;;;10.30;4.10;;;;;;;;;;5008006;28;20420;-64
2022/09/08 07:48:15;;;;;;;6.63;3.80;;;;;;;;;;5007059;28;20052;-65
2022/09/08 07:50:55;;;;;;;8.00;3.95;;;;;;;;;;5007816;28;20434;-64
2022/09/08 07:53:50;;;;;;;10.35;4.07;;;;;;;;;;5014048;28;20041;-64
2022/09/08 07:56:24;;;;;;;9.90;4.28;;;;;;;;;;5031331;28;20088;-65
2022/09/08 07:59:14;;;;;;;9.93;4.07;;;;;;;;;;5029183;28;20029;-64
2022/09/08 08:01:58;;;;;;;6.97;3.72;;;;;;;;;;5029583;28;20025;-64
2022/09/08 08:04:53;;;;;;;8.90;3.80;;;;;;;;;;5029714;28;20043;-65
2022/09/08 08:07:46;;;;;;;12.77;4.15;;;;;;;;;;5029741;28;20121;-65
2022/09/08 08:10:22;;;;;;;8.55;4.50;;;;;;;;;;5023420;28;20049;-63
2022/09/08 08:13:15;;;;;;;9.05;4.00;;;;;;;;;;5029375;28;20017;-64
2022/09/08 08:15:46;;;;;;;9.32;3.67;;;;;;;;;;5030248;28;20054;-63
2022/09/08 08:18:52;;;;;;;8.32;4.22;;;;;;;;;;5028818;28;20116;-63
2022/09/08 08:21:34;;;;;;;9.38;4.30;;;;;;;;;;5030579;28;20491;-64
2022/09/08 08:24:07;;;;;;;5.55;3.75;;;;;;;;;;5029739;28;20026;-63
2022/09/08 08:26:51;;;;;;;9.27;3.75;;;;;;;;;;5029316;28;20387;-63
2022/09/08 08:29:31;;;;;;;9.63;4.05;;;;;;;;;;5030052;28;20033;-63
2022/09/08 08:32:05;;;;;;;11.82;4.40;;;;;;;;;;5028763;28;20026;-63
2022/09/08 08:34:39;;;;;;;8.50;4.22;;;;;;;;;;5030552;28;20034;-63
2022/09/08 08:37:06;;;;;;;10.90;4.28;;;;;;;;;;5029804;28;20029;-63
2022/09/08 08:39:35;;;;;;;9.13;4.30;;;;;;;;;;5029104;28;20108;-63
2022/09/08 08:42:15;;;;;;;9.75;4.53;;;;;;;;;;5028120;28;20028;-63
2022/09/08 08:45:06;;;;;;;9.20;4.57;;;;;;;;;;5027754;28;20021;-63
2022/09/08 08:48:00;;;;;;;7.75;4.00;;;;;;;;;;5029523;28;20052;-63
2022/09/08 08:51:00;;;;;;;11.45;4.43;;;;;;;;;;5029872;28;20071;-64
2022/09/08 08:53:41;;;;;;;6.80;4.10;;;;;;;;;;5028815;28;20422;-64
2022/09/08 08:56:09;;;;;;;;;;;;;;;;;;5030346;28;20496;-64
2022/09/08 08:59:13;;;;;;;8.20;4.20;;;;;;;;;;5029165;28;19935;-63
2022/09/08 09:01:44;;;;;;;9.00;3.90;;;;;;;;;;5007243;28;20546;-63
2022/09/08 09:05:00;;;;;;;8.15;4.07;;;;;;;;;;5006044;28;20053;-65
2022/09/08 09:07:35;;;;;;;6.53;3.65;;;;;;;;;;4948216;29;20051;-63
2022/09/08 09:10:22;;;;;;;11.43;4.15;;;;;;;;;;4948493;29;20047;-64
2022/09/08 09:13:39;;;;;;;5.93;4.07;;;;;;;;;;4948247;29;20118;-63
2022/09/08 09:16:23;;;;;;;8.38;3.70;;;;;;;;;;4944858;29;20106;-63
2022/09/08 09:19:09;;;;;;;10.32;4.20;;;;;;;;;;4948217;29;20437;-63
2022/09/08 09:22:01;;;;;;;7.88;4.10;;;;;;;;;;4949213;29;20036;-64
2022/09/08 09:24:56;;;;;;;7.13;3.92;;;;;;;;;;4938543;29;20043;-64
2022/09/08 09:27:34;;;;;;;7.00;4.30;;;;;;;;;;4951844;28;20051;-64
2022/09/08 09:30:12;;;;;;;7.95;3.80;;;;;;;;;;4952917;29;20501;-63
2022/09/08 09:33:00;;;;;;;8.82;4.18;;;;;;;;;;4952398;29;20035;-63
2022/09/08 09:36:04;;;;;;;7.47;3.88;;;;;;;;;;4959658;28;20046;-64
2022/09/08 09:38:38;;;;;;;8.50;4.80;;;;;;;;;;4972299;28;20536;-63
2022/09/08 09:41:31;;;;;;;8.60;4.35;;;;;;;;;;4990784;28;20083;-63
2022/09/08 09:44:24;;;;;;;8.88;3.83;;;;;;;;;;5032046;28;20615;-66
2022/09/08 09:47:14;;;;;;;12.07;5.07;;;;;;;;;;5032462;28;20106;-63
2022/09/08 09:50:06;;;;;;;8.70;4.88;;;;;;;;;;5032329;28;20509;-67
2022/09/08 09:52:55;;;;;;;13.00;6.43;;;;;;;;;;5030290;28;20056;-63
2022/09/08 09:55:58;;;;;;;12.23;4.80;;;;;;;;;;4990733;28;20449;-67
2022/09/08 09:58:33;;;;;;;13.50;5.22;;;;;;;;;;4933223;29;20051;-65
2022/09/08 10:01:07;;;;;;;16.80;5.35;;;;;;;;;;4932896;29;20071;-63
2022/09/08 10:03:50;;;;;;;11.68;5.72;;;;;;;;;;4933026;29;20071;-64
2022/09/08 10:06:26;;;;;;;10.00;4.72;;;;;;;;;;4932696;29;20126;-64
2022/09/08 10:09:28;;;;;;;13.95;5.47;;;;;;;;;;4932186;29;20040;-64
2022/09/08 10:12:15;;;;;;;10.70;5.55;;;;;;;;;;4932600;29;20076;-63
2022/09/08 10:15:12;;;;;;;15.10;6.10;;;;;;;;;;4932450;29;20488;-63
2022/09/08 10:17:38;;;;;;;11.52;4.93;;;;;;;;;;4932410;29;20111;-63
2022/09/08 10:20:24;;;;;;;8.98;5.18;;;;;;;;;;4932629;29;20148;-64
2022/09/08 10:23:29;;;;;;;10.15;5.15;;;;;;;;;;4931869;29;20059;-63
2022/09/08 10:26:15;;;;;;;9.38;4.82;;;;;;;;;;4931500;29;20568;-64
2022/09/08 10:28:47;;;;;;;10.75;4.93;;;;;;;;;;4932192;29;20048;-63
2022/09/08 10:31:50;;;;;;;9.38;4.60;;;;;;;;;;4933755;28;20119;-63
2022/09/08 10:34:18;;;;;;;11.23;4.88;;;;;;;;;;5009548;28;20037;-63
2022/09/08 10:37:26;;;;;;;9.48;4.22;;;;;;;;;;5030666;28;20029;-64
2022/09/08 10:40:19;;;;;;;8.63;4.32;;;;;;;;;;5030768;28;20402;-63
2022/09/08 10:42:46;;;;;;;9.55;4.78;;;;;;;;;;5031996;28;20037;-64
2022/09/08 10:45:50;;;;;;;9.13;4.30;;;;;;;;;;5031439;28;20030;-63
2022/09/08 10:48:53;;;;;;;11.55;5.30;;;;;;;;;;5030759;28;20390;-63
2022/09/08 10:51:39;;;;;;;9.73;4.50;;;;;;;;;;5032087;28;20383;-64
2022/09/08 10:54:41;;;;;;;8.52;3.92;;;;;;;;;;5031890;28;20426;-63
2022/09/08 10:57:30;;;;;;;8.80;3.10;;;;;;;;;;5030696;28;20032;-65
2022/09/08 11:00:15;;;;;;;7.00;3.53;;;;;;;;;;5031149;28;20108;-63
2022/09/08 11:03:19;;;;;;;7.90;3.50;;;;;;;;;;5031471;28;20112;-63
2022/09/08 11:05:48;;;;;;;7.82;4.05;;;;;;;;;;5030112;28;20052;-63
2022/09/08 11:08:38;;;;;;;9.52;3.78;;;;;;;;;;5031327;28;20398;-63
2022/09/08 11:11:22;;;;;;;10.20;4.25;;;;;;;;;;5016653;28;20030;-62
2022/09/08 11:14:24;;;;;;;13.57;5.18;;;;;;;;;;5014838;28;20113;-62
2022/09/08 11:17:22;;;;;;;8.88;3.70;;;;;;;;;;5009365;28;20037;-63
2022/09/08 11:20:13;;;;;;;13.18;6.35;;;;;;;;;;5030479;28;20072;-62
2022/09/08 11:23:02;;;;;;;12.98;6.65;;;;;;;;;;5027947;28;20152;-63
2022/09/08 11:25:30;;;;;;;9.18;5.35;;;;;;;;;;5030009;28;20051;-63
2022/09/08 11:28:15;;;;;;;11.52;5.90;;;;;;;;;;5031565;28;20036;-63
2022/09/08 11:30:53;;;;;;;10.13;5.97;;;;;;;;;;5030931;28;20532;-66
2022/09/08 11:33:53;;;;;;;12.60;7.72;;;;;;;;;;5030291;28;20025;-66
2022/09/08 11:36:57;;;;;;;10.95;7.13;;;;;;;;;;5007052;28;20045;-66
2022/09/08 11:39:47;;;;;;;8.57;4.85;;;;;;;;;;5008259;28;20069;-63
2022/09/08 11:42:33;;;;;;;16.00;6.45;;;;;;;;;;5008268;28;20120;-65
2022/09/08 11:45:23;;;;;;;13.40;7.15;;;;;;;;;;5008298;28;20542;-64
2022/09/08 11:48:04;;;;;;;8.32;5.63;;;;;;;;;;5006733;28;20420;-64
2022/09/08 11:50:44;;;;;;;;;;;;;;;;;;5008821;28;20124;-64
2022/09/08 11:53:16;;;;;;;18.33;9.90;;;;;;;;;;5007432;28;20009;-63
2022/09/08 11:56:03;;;;;;;16.67;10.65;;;;;;;;;;5008715;28;20075;-66
2022/09/08 11:58:51;;;;;;;14.00;9.50;;;;;;;;;;5008792;28;20038;-65
2022/09/08 12:01:34;;;;;;;16.55;11.52;;;;;;;;;;5006902;28;20123;-63
2022/09/08 12:04:26;;;;;;;16.67;10.25;;;;;;;;;;5006898;28;20209;-63
2022/09/08 12:07:16;;;;;;;16.20;9.80;;;;;;;;;;5006904;28;20046;-64
2022/09/08 12:09:47;;;;;;;15.30;9.93;;;;;;;;;;5009087;28;20057;-63
2022/09/08 12:12:46;;;;;;;14.18;9.82;;;;;;;;;;5010247;28;20040;-63
2022/09/08 12:15:23;;;;;;;14.85;9.18;;;;;;;;;;5029673;28;20055;-63
2022/09/08 12:18:33;;;;;;;15.27;9.13;;;;;;;;;;5027819;28;20031;-63
2022/09/08 12:21:07;;;;;;;11.68;8.02;;;;;;;;;;5028792;28;20398;-64
2022/09/08 12:23:46;;;;;;;14.43;8.48;;;;;;;;;;5030282;28;20040;-63
2022/09/08 12:26:35;;;;;;;11.38;7.70;;;;;;;;;;5028522;28;20053;-64
2022/09/08 12:29:28;;;;;;;10.68;6.88;;;;;;;;;;5029430;28;20139;-63
2022/09/08 12:32:40;;;;;;;16.38;7.28;;;;;;;;;;5027587;28;20028;-63
2022/09/08 12:35:41;;;;;;;13.75;7.53;;;;;;;;;;5013389;28;20065;-64
2022/09/08 12:38:12;;;;;;;;;;;;;;;;;;5017863;28;20045;-63
2022/09/08 12:40:52;;;;;;;16.55;7.30;;;;;;;;;;5016670;28;20417;-64
2022/09/08 12:43:22;;;;;;;10.90;6.30;;;;;;;;;;5022324;28;20157;-63
2022/09/08 12:46:22;;;;;;;11.77;6.70;;;;;;;;;;5024769;28;20046;-63
2022/09/08 12:48:50;;;;;;;13.52;7.03;;;;;;;;;;5009862;28;20033;-63
2022/09/08 12:51:16;;;;;;;9.30;6.30;;;;;;;;;;5007621;28;20301;-65
2022/09/08 12:54:05;;;;;;;10.02;7.47;;;;;;;;;;5019965;28;20084;-64
2022/09/08 12:57:03;;;;;;;11.45;6.97;;;;;;;;;;5025728;28;20041;-63
2022/09/08 12:59:50;;;;;;;14.10;6.80;;;;;;;;;;5012630;28;20100;-64
2022/09/08 13:02:44;;;;;;;10.68;6.45;;;;;;;;;;5012168;28;20147;-64
2022/09/08 13:05:38;;;;;;;9.73;6.15;;;;;;;;;;5025816;28;20557;-64
2022/09/08 13:08:03;;;;;;;12.45;6.63;;;;;;;;;;5016616;28;20450;-64
2022/09/08 13:10:34;;;;;;;15.45;7.15;;;;;;;;;;5015792;28;20069;-64
2022/09/08 13:13:04;;;;;;;13.68;6.50;;;;;;;;;;5027618;28;20045;-64
2022/09/08 13:15:43;;;;;;;9.70;6.40;;;;;;;;;;5027920;28;20025;-64
2022/09/08 13:18:20;;;;;;;10.73;6.13;;;;;;;;;;5027855;28;20445;-64
2022/09/08 13:20:58;;;;;;;11.10;6.90;;;;;;;;;;5027939;28;20147;-64
2022/09/08 13:23:45;;;;;;;12.88;6.78;;;;;;;;;;5028532;28;20033;-64
2022/09/08 13:26:22;;;;;;;17.27;8.23;;;;;;;;;;5027593;28;20552;-64
2022/09/08 13:29:26;;;;;;;14.90;7.20;;;;;;;;;;5027352;28;20079;-64
2022/09/08 13:32:36;;;;;;;10.60;6.15;;;;;;;;;;5029444;28;20029;-64
2022/09/08 13:35:24;;;;;;;8.50;5.03;;;;;;;;;;5022439;28;20045;-64
2022/09/08 13:38:08;;;;;;;16.35;7.22;;;;;;;;;;5026932;28;20033;-64
2022/09/08 13:41:03;;;;;;;13.23;7.10;;;;;;;;;;5021270;28;20495;-64
2022/09/08 13:43:40;;;;;;;11.75;6.40;;;;;;;;;;4928842;29;20040;-67
2022/09/08 13:46:16;;;;;;;11.07;6.30;;;;;;;;;;4929332;29;20071;-65
2022/09/08 13:49:07;;;;;;;14.23;6.93;;;;;;;;;;4928757;29;20039;-64
2022/09/08 13:52:12;;;;;;;10.43;6.70;;;;;;;;;;4929796;29;20055;-64
2022/09/08 13:54:49;;;;;;;16.55;6.85;;;;;;;;;;4924386;29;20493;-64
2022/09/08 13:57:41;;;;;;;9.95;7.22;;;;;;;;;;4925941;29;20030;-66
2022/09/08 14:00:12;;;;;;;10.48;7.80;;;;;;;;;;4928356;29;20032;-64
2022/09/08 14:03:04;;;;;;;13.25;6.80;;;;;;;;;;4928319;29;20458;-63
2022/09/08 14:05:42;;;;;;;13.95;7.18;;;;;;;;;;4929338;29;20048;-64
2022/09/08 14:08:10;;;;;;;15.80;7.60;;;;;;;;;;4928629;29;20051;-64
2022/09/08 14:10:41;;;;;;;13.48;7.30;;;;;;;;;;4929754;29;20047;-64
2022/09/08 14:13:13;;;;;;;14.68;7.30;;;;;;;;;;4951473;28;20048;-65
2022/09/08 14:15:48;;;;;;;13.27;8.00;;;;;;;;;;4951296;29;20031;-63
2022/09/08 14:18:56;;;;;;;14.60;9.13;;;;;;;;;;4951100;29;20038;-64
2022/09/08 14:21:47;;;;;;;12.75;6.75;;;;;;;;;;5019271;28;20441;-64
2022/09/08 14:24:16;;;;;;;16.15;6.43;;;;;;;;;;5028521;28;20029;-64
2022/09/08 14:26:49;;;;;;;11.10;7.00;;;;;;;;;;5028174;28;20557;-67
2022/09/08 14:29:20;;;;;;;10.15;6.45;;;;;;;;;;5029701;28;20037;-64
2022/09/08 14:31:51;;;;;;;9.95;6.75;;;;;;;;;;5028568;28;20107;-64
2022/09/08 14:34:57;;;;;;;13.38;6.57;;;;;;;;;;5029579;28;20037;-64
2022/09/08 14:37:28;;;;;;;14.60;7.07;;;;;;;;;;5028745;28;20032;-64
2022/09/08 14:40:18;;;;;;;10.77;7.78;;;;;;;;;;5029592;28;20048;-64
2022/09/08 14:43:02;;;;;;;13.82;8.18;;;;;;;;;;5029294;28;20026;-64
2022/09/08 14:45:59;;;;;;;14.35;7.22;;;;;;;;;;5029090;28;20033;-64
2022/09/08 14:48:32;;;;;;;13.65;7.85;;;;;;;;;;5028220;28;20147;-64
2022/09/08 14:51:07;;;;;;;15.65;7.57;;;;;;;;;;5028844;28;20041;-64
2022/09/08 14:53:54;;;;;;;10.05;7.57;;;;;;;;;;5028256;28;20486;-64
2022/09/08 14:56:29;;;;;;;21.90;8.93;;;;;;;;;;5028538;28;20055;-64
2022/09/08 14:59:21;;;;;;;15.95;8.63;;;;;;;;;;5030538;28;20531;-64
2022/09/08 15:01:56;;;;;;;15.00;9.75;;;;;;;;;;5029931;28;20056;-64
2022/09/08 15:04:28;;;;;;;19.15;10.80;;;;;;;;;;5030162;28;20406;-64
2022/09/08 15:06:59;;;;;;;18.30;11.10;;;;;;;;;;5030350;28;20044;-64
2022/09/08 15:09:36;;;;;;;17.52;11.38;;;;;;;;;;5030279;28;20025;-64
2022/09/08 15:12:54;;;;;;;18.35;11.27;;;;;;;;;;5030347;28;20026;-64
2022/09/08 15:15:30;;;;;;;19.85;10.73;;;;;;;;;;5020832;28;20052;-64
2022/09/08 15:17:59;;;;;;;18.35;11.07;;;;;;;;;;5031073;28;20478;-64
2022/09/08 15:20:36;;;;;;;18.02;11.88;;;;;;;;;;5029248;28;20037;-63
2022/09/08 15:23:04;;;;;;;20.48;12.20;;;;;;;;;;5029907;28;20498;-65
2022/09/08 15:25:30;;;;;;;20.27;12.00;;;;;;;;;;5030335;28;20033;-64
2022/09/08 15:27:57;;;;;;;17.52;11.32;;;;;;;;;;5030793;28;20070;-64
2022/09/08 15:30:28;;;;;;;21.58;11.05;;;;;;;;;;5030045;28;20029;-64
2022/09/08 15:33:06;;;;;;;17.52;12.60;;;;;;;;;;5030214;28;20033;-64
2022/09/08 15:35:55;;;;;;;25.45;16.20;;;;;;;;;;5030891;28;20109;-64
2022/09/08 15:38:58;;;;;;;26.42;14.27;;;;;;;;;;5030562;28;20480;-63
2022/09/08 15:41:32;;;;;;;22.77;15.00;;;;;;;;;;5030083;28;20022;-63